New Hampton, IA

3:56 PM CST on January 21, 2017 (GMT -0600)
Charles City | | Change Station
Active Advisory: Dense Fog Advisory

Elev 1122 ft 43.07 °N, 92.61 °W | Updated 1 minute ago

Fog
Fog
39 °F
Feels Like 34 °F
N
8
Wind Variable Wind from SSW

Today
High -- | Low -- °F
--% Chance of Precip.
Yesterday
High -- | Low -- °F
Precip. -- in
Pressure 29.44 in
Visibility 0.2 miles
Clouds Overcast 300 ft
Windchill 34 °F
Dew Point 39 °F
Humidity 100%
Rainfall 0.11 in
Snow Depth Not available.
7:34 AM 5:07 PM
Waning Crescent, 32% visible
METAR KCCY 212155Z AUTO 21007KT M1/4SM FG OVC003 04/04 A2944 RMK AO2
Pressure 29.44 in
Visibility 0.2 miles
Clouds Overcast 300 ft
Windchill 34 °F
Dew Point 39 °F
Humidity 100%
Rainfall 0.11 in
Snow Depth Not available.
7:34 AM 5:07 PM
Waning Crescent, 32% visible
METAR KCCY 212155Z AUTO 21007KT M1/4SM FG OVC003 04/04 A2944 RMK AO2

Get Your Daily Forecast Email!

Thanks for signing up!

Be on the lookout for a verification email in your inbox.

You'll start receiving the daily forecast at 8 AM.

×

10-Day Weather Forecast

Almanac

Astronomy

Jan. 21, 2017 Rise Set
Actual Time
Civil Twilight
Nautical Twilight
Astronomical Twilight
Moon
Length of Visible Light
Length of Day
Tomorrow will be .
, % of the Moon is Illuminated

Today's Extremes

State Highs State Lows

Community

WunderPhotos

Upload Photos

1,962,540 photos uploaded!

WunderBlog® & News

Nearby

Air Quality

  Air Quality AQ Index Pollutant
Not available.

Snow Depth

Station Depth Elevation

Earthquake Activity

City Distance Mag. Time & Date
Minimum magnitude displayed is 2.5.

Coastal Water Temperatures

Place Temperature

Stations

Nearby Weather Stations

Station Location Temp. Windchill Dew Point Humidity Wind Precip. Elev Updated Type
                   

Watches & Warnings

Dense Fog Advisory
Issued: 11:06 AM CST Jan. 21, 2017 – National Weather Service

... Dense fog advisory now in effect until noon CST Sunday...

* periods of dense fog will continue through Sunday morning.

* Some improvement in visibility is possible later this
afternoon... but fog will redevelop this evening and tonight.

* Impacts... significantly reduced visibility at times impacting
travel.

Precautionary/preparedness actions...

A dense fog advisory means visibilities will frequently be
reduced to less than one quarter mile. If driving... slow down...
use your headlights... and leave plenty of distance ahead of you.